createdAt,value
2022-10-20T00:02:56.193Z,90.39
2022-10-20T00:06:08.077Z,90.04
2022-10-20T00:09:10.697Z,90.12
2022-10-20T00:12:13.282Z,90.73
2022-10-20T00:15:17.430Z,90.38
2022-10-20T00:18:20.290Z,90.95
2022-10-20T00:21:24.578Z,90.77
2022-10-20T00:24:27.073Z,91.07
2022-10-20T00:27:29.627Z,91.45
2022-10-20T00:30:34.801Z,91.26
2022-10-20T00:33:37.553Z,90.81
2022-10-20T00:36:40.625Z,90.17
2022-10-20T00:39:43.114Z,89.93
2022-10-20T00:42:45.827Z,91.28
2022-10-20T00:45:55.649Z,90.49
2022-10-20T00:49:01.471Z,91.05
2022-10-20T00:52:04.190Z,90.41
2022-10-20T00:55:09.042Z,90.82
2022-10-20T00:58:11.583Z,90.46
2022-10-20T01:01:15.742Z,90.81
2022-10-20T01:04:18.835Z,90.12
2022-10-20T01:07:21.332Z,89.22
2022-10-20T01:10:27.599Z,91.00
2022-10-20T01:13:39.545Z,91.29
2022-10-20T01:16:52.660Z,91.25
2022-10-20T01:20:19.604Z,91.57
2022-10-20T01:24:01.296Z,90.48
2022-10-20T01:27:29.120Z,90.09
2022-10-20T01:30:33.060Z,91.60
2022-10-20T01:33:42.676Z,91.35
2022-10-20T01:36:51.910Z,91.69
2022-10-20T01:40:01.417Z,91.61
2022-10-20T01:43:10.132Z,91.78
2022-10-20T01:46:14.510Z,91.88
2022-10-20T01:49:17.476Z,91.88
2022-10-20T01:52:22.321Z,91.58
2022-10-20T01:55:25.410Z,91.82
2022-10-20T01:59:03.645Z,92.36
2022-10-20T02:02:30.041Z,92.75
2022-10-20T02:05:47.010Z,92.31
2022-10-20T02:08:53.484Z,92.55
2022-10-20T02:12:02.346Z,92.46
2022-10-20T02:15:07.862Z,91.80
2022-10-20T02:18:12.829Z,92.19
2022-10-20T02:21:17.330Z,92.89
2022-10-20T02:24:22.859Z,92.16
2022-10-20T02:27:30.082Z,91.92
2022-10-20T02:30:35.362Z,92.11
2022-10-20T02:33:39.126Z,92.78
2022-10-20T02:36:43.965Z,92.75
2022-10-20T02:39:46.457Z,93.52
2022-10-20T02:42:48.982Z,93.41
2022-10-20T02:45:52.789Z,92.69
2022-10-20T02:48:55.303Z,92.34
2022-10-20T02:51:57.802Z,92.96
2022-10-20T02:55:00.565Z,92.94
2022-10-20T02:58:03.063Z,92.77
2022-10-20T03:01:06.950Z,92.73
2022-10-20T03:04:09.665Z,92.51
2022-10-20T03:07:13.652Z,92.05
2022-10-20T03:10:16.258Z,92.91
2022-10-20T03:13:18.739Z,92.91
2022-10-20T03:16:22.622Z,93.09
2022-10-20T03:19:25.134Z,93.45
2022-10-20T03:22:27.628Z,93.72
2022-10-20T03:25:32.388Z,94.10
2022-10-20T03:28:35.302Z,94.14
2022-10-20T03:31:39.175Z,93.54
2022-10-20T03:34:41.690Z,93.62
2022-10-20T03:37:44.190Z,92.63
2022-10-20T03:40:46.832Z,93.67
2022-10-20T03:43:49.309Z,94.30
2022-10-20T03:46:53.114Z,94.01
2022-10-20T03:49:55.665Z,93.44
2022-10-20T03:52:58.227Z,93.80
2022-10-20T03:56:00.712Z,94.28
2022-10-20T04:02:08.126Z,93.97
2022-10-20T04:05:13.882Z,95.49
2022-10-20T04:08:16.393Z,93.69
2022-10-20T04:11:18.910Z,95.21
2022-10-20T04:14:21.382Z,94.76
2022-10-20T04:17:25.396Z,94.48
2022-10-20T04:20:27.911Z,94.84
2022-10-20T04:23:30.510Z,95.69
2022-10-20T04:26:33.006Z,95.50
2022-10-20T04:29:35.892Z,95.19
2022-10-20T04:32:39.839Z,95.07
2022-10-20T04:35:42.472Z,94.83
2022-10-20T04:38:44.989Z,95.41
2022-10-20T04:41:47.513Z,94.94
2022-10-20T04:44:50.098Z,94.93
2022-10-20T04:47:55.377Z,95.07
2022-10-20T04:51:02.224Z,95.38
2022-10-20T04:57:12.312Z,95.60
2022-10-20T05:00:15.859Z,96.01
2022-10-20T05:03:19.937Z,95.82
2022-10-20T05:06:24.813Z,95.25
2022-10-20T05:09:27.295Z,95.94
2022-10-20T05:12:29.819Z,96.24
2022-10-20T05:15:32.317Z,96.29
2022-10-20T05:18:36.857Z,95.92
2022-10-20T05:21:39.775Z,96.15
2022-10-20T05:24:42.264Z,96.53
2022-10-20T05:27:44.963Z,96.49
2022-10-20T05:30:47.462Z,96.35
2022-10-20T05:33:53.790Z,96.92
2022-10-20T05:36:56.275Z,96.16
2022-10-20T05:39:59.797Z,97.11
2022-10-20T05:43:02.251Z,97.55
2022-10-20T05:46:05.332Z,97.52
2022-10-20T05:49:13.975Z,97.65
2022-10-20T05:52:16.474Z,98.93
2022-10-20T05:55:19.329Z,98.93
2022-10-20T05:58:23.075Z,98.75
2022-10-20T06:01:27.481Z,98.55
2022-10-20T06:04:31.789Z,98.45
2022-10-20T06:07:34.319Z,99.25
2022-10-20T06:10:36.814Z,98.02
2022-10-20T06:13:39.519Z,97.64
2022-10-20T06:16:42.024Z,97.49
2022-10-20T06:19:45.845Z,97.10
2022-10-20T06:22:48.312Z,97.36
2022-10-20T06:25:50.780Z,97.98
2022-10-20T06:28:59.813Z,97.50
2022-10-20T06:32:05.913Z,97.16
2022-10-20T06:35:09.949Z,96.79
2022-10-20T06:38:12.425Z,97.99
2022-10-20T06:41:16.764Z,98.72
2022-10-20T06:44:20.000Z,98.32
2022-10-20T06:47:22.492Z,98.25
2022-10-20T06:50:26.520Z,98.58
2022-10-20T06:53:30.337Z,97.11
2022-10-20T06:56:34.837Z,96.87
2022-10-20T06:59:38.661Z,96.96
2022-10-20T07:02:41.133Z,96.79
2022-10-20T07:05:44.971Z,97.51
2022-10-20T07:08:48.227Z,96.11
2022-10-20T07:11:53.957Z,95.73
2022-10-20T07:14:56.478Z,96.57
2022-10-20T07:17:58.964Z,96.82
2022-10-20T07:21:05.317Z,96.46
2022-10-20T07:24:09.399Z,96.97
2022-10-20T07:27:11.866Z,97.09
2022-10-20T07:30:14.500Z,95.88
2022-10-20T07:33:17.028Z,96.30
2022-10-20T07:36:23.715Z,95.94
2022-10-20T07:39:26.693Z,95.13
2022-10-20T07:42:30.166Z,95.92
2022-10-20T07:45:33.267Z,94.19
2022-10-20T07:48:36.045Z,95.17
2022-10-20T07:51:39.915Z,95.41
2022-10-20T07:54:42.424Z,95.14
2022-10-20T07:57:44.916Z,95.87
2022-10-20T08:00:47.399Z,95.65
2022-10-20T08:03:49.924Z,94.54
2022-10-20T08:06:53.772Z,93.84
2022-10-20T08:09:56.358Z,93.03
2022-10-20T08:12:58.967Z,92.14
2022-10-20T08:16:04.458Z,92.91
2022-10-20T08:19:13.584Z,92.35
2022-10-20T08:22:19.092Z,91.72
2022-10-20T08:25:21.665Z,91.99
2022-10-20T08:28:26.262Z,90.04
2022-10-20T08:31:29.615Z,89.58
2022-10-20T08:34:32.419Z,90.08
2022-10-20T08:37:37.249Z,87.79
2022-10-20T08:40:43.358Z,87.44
2022-10-20T08:43:48.003Z,86.28
2022-10-20T08:46:50.654Z,85.93
2022-10-20T08:49:53.458Z,85.63
2022-10-20T08:53:00.564Z,87.12
2022-10-20T08:56:03.056Z,87.13
2022-10-20T08:59:22.817Z,85.26
2022-10-20T09:02:25.340Z,85.75
2022-10-20T09:05:32.288Z,85.24
2022-10-20T09:08:39.340Z,83.82
2022-10-20T09:11:44.241Z,83.35
2022-10-20T09:14:46.755Z,79.64
2022-10-20T09:17:52.554Z,78.77
2022-10-20T09:20:58.604Z,80.16
2022-10-20T09:24:05.418Z,76.48
2022-10-20T09:27:21.580Z,74.40
2022-10-20T09:30:26.382Z,75.01
2022-10-20T09:33:31.230Z,77.72
2022-10-20T09:36:36.335Z,77.30
2022-10-20T09:39:54.191Z,75.14
2022-10-20T09:43:02.249Z,76.18
2022-10-20T09:46:07.633Z,73.41
2022-10-20T09:49:24.695Z,72.53
2022-10-20T09:52:34.117Z,70.25
2022-10-20T09:55:46.071Z,70.39
2022-10-20T09:58:48.653Z,68.78
2022-10-20T10:01:56.158Z,66.90
2022-10-20T10:05:16.078Z,64.21
2022-10-20T10:08:19.278Z,61.00
2022-10-20T10:11:27.713Z,58.19
2022-10-20T10:14:33.140Z,55.25
2022-10-20T10:17:39.125Z,55.17
2022-10-20T10:20:42.285Z,52.23
2022-10-20T10:23:56.492Z,54.13
2022-10-20T10:27:00.601Z,51.28
2022-10-20T10:30:28.328Z,48.89
2022-10-20T10:33:33.014Z,48.61
2022-10-20T10:36:37.419Z,48.40
2022-10-20T10:39:39.902Z,46.66
2022-10-20T10:43:00.100Z,44.34
2022-10-20T10:46:07.142Z,46.72
2022-10-20T10:49:29.895Z,44.62
2022-10-20T10:52:42.817Z,44.21
2022-10-20T10:55:54.876Z,43.16
2022-10-20T10:59:05.459Z,40.83
2022-10-20T11:02:30.314Z,41.10
2022-10-20T11:05:55.231Z,43.17
2022-10-20T11:09:12.969Z,45.46
2022-10-20T11:12:46.827Z,46.84
2022-10-20T11:16:01.276Z,45.15
2022-10-20T11:19:20.732Z,43.86
2022-10-20T11:22:36.645Z,43.52
2022-10-20T11:25:45.708Z,43.21
2022-10-20T11:28:50.475Z,46.28
2022-10-20T11:32:02.266Z,47.10
2022-10-20T11:35:15.206Z,51.48
2022-10-20T11:38:22.356Z,53.45
2022-10-20T11:41:30.464Z,55.82
2022-10-20T11:44:38.201Z,56.62
2022-10-20T11:47:46.351Z,54.62
2022-10-20T11:51:11.738Z,51.96
2022-10-20T11:54:40.258Z,49.02
2022-10-20T11:57:59.000Z,48.27
2022-10-20T12:01:26.470Z,50.51
2022-10-20T12:04:41.816Z,53.24
2022-10-20T12:08:24.718Z,55.92
2022-10-20T12:11:30.827Z,54.54
2022-10-20T12:14:37.691Z,57.56
2022-10-20T12:17:43.370Z,54.29
2022-10-20T12:20:59.667Z,53.50
2022-10-20T12:24:05.786Z,50.75
2022-10-20T12:27:28.145Z,52.51
2022-10-20T12:30:45.189Z,48.86
2022-10-20T12:34:03.688Z,46.29
2022-10-20T12:37:17.775Z,46.24
2022-10-20T12:40:26.020Z,46.99
2022-10-20T12:43:35.676Z,50.47
2022-10-20T12:46:43.703Z,46.17
2022-10-20T12:49:55.251Z,44.04
2022-10-20T12:53:11.821Z,40.15
2022-10-20T12:56:21.126Z,39.68
2022-10-20T12:59:40.125Z,37.81
2022-10-20T13:02:50.430Z,37.15
2022-10-20T13:05:52.920Z,35.35
2022-10-20T13:09:22.860Z,35.99
2022-10-20T13:12:28.940Z,34.93
2022-10-20T13:15:35.937Z,35.65
2022-10-20T13:18:45.532Z,36.75
2022-10-20T13:21:49.768Z,37.22
2022-10-20T13:24:56.026Z,36.91
2022-10-20T13:28:08.351Z,35.22
2022-10-20T13:31:20.663Z,36.40
2022-10-20T13:34:27.966Z,38.50
2022-10-20T13:37:45.530Z,40.09
2022-10-20T13:41:02.585Z,42.43
2022-10-20T13:44:16.448Z,47.04
2022-10-20T13:47:47.178Z,48.79
2022-10-20T13:50:57.156Z,49.80
2022-10-20T13:54:03.917Z,51.63
2022-10-20T13:57:08.887Z,52.09
2022-10-20T14:00:20.425Z,54.46
2022-10-20T14:03:22.894Z,54.14
2022-10-20T14:06:37.661Z,55.92
2022-10-20T14:09:45.246Z,57.42
2022-10-20T14:12:51.897Z,58.39
2022-10-20T14:15:57.006Z,59.34
2022-10-20T14:19:05.020Z,61.00
2022-10-20T14:22:18.922Z,62.19
2022-10-20T14:25:22.367Z,60.93
2022-10-20T14:28:29.222Z,61.62
2022-10-20T14:31:31.909Z,61.65
2022-10-20T14:34:36.687Z,63.29
2022-10-20T14:37:41.340Z,62.15
2022-10-20T14:40:51.217Z,62.34
2022-10-20T14:44:02.095Z,65.08
2022-10-20T14:47:14.769Z,63.79
2022-10-20T14:50:23.471Z,65.29
2022-10-20T14:53:33.734Z,66.19
2022-10-20T14:56:44.487Z,66.16
2022-10-20T14:59:55.894Z,68.39
2022-10-20T15:03:02.930Z,68.45
2022-10-20T15:06:05.808Z,67.27
2022-10-20T15:09:18.890Z,68.25
2022-10-20T15:12:25.730Z,68.27
2022-10-20T15:15:37.636Z,69.71
2022-10-20T15:18:40.219Z,70.52
2022-10-20T15:21:42.707Z,68.62
2022-10-20T15:24:48.853Z,71.91
2022-10-20T15:27:51.885Z,69.64
2022-10-20T15:30:55.762Z,71.12
2022-10-20T15:33:59.525Z,71.76
2022-10-20T15:37:02.025Z,71.50
2022-10-20T15:40:05.063Z,72.85
2022-10-20T15:43:07.628Z,76.22
2022-10-20T15:46:12.992Z,73.02
2022-10-20T15:49:15.937Z,73.65
2022-10-20T15:52:18.504Z,75.28
2022-10-20T15:55:23.316Z,74.45
2022-10-20T15:58:25.802Z,72.30
2022-10-20T16:01:29.740Z,74.08
2022-10-20T16:04:32.354Z,73.64
2022-10-20T16:07:35.176Z,74.87
2022-10-20T16:10:38.828Z,74.72
2022-10-20T16:13:41.377Z,76.00
2022-10-20T16:16:45.748Z,74.94
2022-10-20T16:19:48.250Z,76.56
2022-10-20T16:22:50.840Z,75.34
2022-10-20T16:25:53.383Z,74.61
2022-10-20T16:28:56.059Z,76.07
2022-10-20T16:32:00.206Z,77.90
2022-10-20T16:35:02.844Z,75.08
2022-10-20T16:38:05.317Z,76.69
2022-10-20T16:41:10.336Z,74.95
2022-10-20T16:44:13.065Z,76.85
2022-10-20T16:47:16.913Z,77.11
2022-10-20T16:50:19.400Z,78.03
2022-10-20T16:53:23.646Z,76.82
2022-10-20T16:56:26.901Z,77.92
2022-10-20T16:59:29.431Z,79.57
2022-10-20T17:02:35.500Z,79.96
2022-10-20T17:05:37.980Z,77.97
2022-10-20T17:08:41.165Z,77.53
2022-10-20T17:11:43.734Z,78.21
2022-10-20T17:14:46.221Z,78.51
2022-10-20T17:17:50.034Z,79.62
2022-10-20T17:20:55.814Z,80.80
2022-10-20T17:23:58.473Z,79.88
2022-10-20T17:27:00.961Z,79.71
2022-10-20T17:30:03.466Z,78.37
2022-10-20T17:33:07.279Z,78.72
2022-10-20T17:36:11.531Z,79.85
2022-10-20T17:39:17.267Z,80.83
2022-10-20T17:42:19.811Z,81.38
2022-10-20T17:45:22.294Z,79.88
2022-10-20T17:48:26.140Z,80.12
2022-10-20T17:51:33.381Z,80.36
2022-10-20T17:54:37.567Z,79.99
2022-10-20T17:57:40.106Z,81.25
2022-10-20T18:00:56.115Z,82.02
2022-10-20T18:04:03.184Z,80.62
2022-10-20T18:07:05.714Z,81.01
2022-10-20T18:10:08.938Z,79.98
2022-10-20T18:13:11.544Z,81.19
2022-10-20T18:16:15.814Z,82.26
2022-10-20T18:19:20.380Z,82.38
2022-10-20T18:22:22.859Z,82.57
2022-10-20T18:25:25.439Z,81.54
2022-10-20T18:28:27.943Z,83.61
2022-10-20T18:31:32.417Z,83.44
2022-10-20T18:34:38.474Z,84.28
2022-10-20T18:37:41.634Z,85.51
2022-10-20T18:40:44.140Z,86.62
2022-10-20T18:43:47.491Z,87.57
2022-10-20T18:46:51.313Z,86.78
2022-10-20T18:49:55.130Z,88.14
2022-10-20T18:52:57.610Z,88.21
2022-10-20T18:56:01.627Z,88.27
2022-10-20T18:59:06.168Z,89.98
2022-10-20T19:02:10.962Z,90.40
2022-10-20T19:05:14.774Z,89.50
2022-10-20T19:08:17.480Z,89.46
2022-10-20T19:11:21.498Z,88.39
2022-10-20T19:14:24.096Z,87.68
2022-10-20T19:17:26.561Z,89.14
2022-10-20T19:20:32.071Z,90.40
2022-10-20T19:23:36.587Z,90.33
2022-10-20T19:26:40.566Z,90.28
2022-10-20T19:29:43.062Z,89.71
2022-10-20T19:32:45.747Z,90.83
2022-10-20T19:35:51.040Z,92.48
2022-10-20T19:38:53.701Z,92.07
2022-10-20T19:41:57.458Z,92.93
2022-10-20T19:44:59.921Z,93.40
2022-10-20T19:48:02.448Z,93.61
2022-10-20T19:51:06.555Z,93.89
2022-10-20T19:54:09.514Z,96.14
2022-10-20T19:57:11.990Z,96.69
2022-10-20T20:00:14.889Z,96.55
2022-10-20T20:03:17.919Z,98.53
2022-10-20T20:06:23.014Z,99.00
2022-10-20T20:09:29.277Z,99.70
2022-10-20T20:12:31.882Z,100.00
2022-10-20T20:15:34.384Z,100.00
2022-10-20T20:18:37.136Z,100.00
2022-10-20T20:21:40.968Z,100.00
2022-10-20T20:24:44.094Z,100.00
2022-10-20T20:27:46.683Z,100.00
2022-10-20T20:30:59.830Z,100.00
2022-10-20T20:34:02.356Z,100.00
2022-10-20T20:37:06.151Z,100.00
2022-10-20T20:40:09.487Z,100.00
2022-10-20T20:43:12.061Z,100.00
2022-10-20T20:46:16.704Z,100.00
2022-10-20T20:49:19.321Z,100.00
2022-10-20T20:52:23.166Z,100.00
2022-10-20T20:55:25.648Z,100.00
2022-10-20T20:58:29.390Z,100.00
2022-10-20T21:01:32.557Z,100.00
2022-10-20T21:04:35.188Z,100.00
2022-10-20T21:07:39.534Z,100.00
2022-10-20T21:10:42.262Z,100.00
2022-10-20T21:13:46.555Z,100.00
2022-10-20T21:16:49.125Z,100.00
2022-10-20T21:19:51.591Z,100.00
2022-10-20T21:22:55.453Z,100.00
2022-10-20T21:25:57.939Z,100.00
2022-10-20T21:29:00.497Z,100.00
2022-10-20T21:32:02.972Z,100.00
2022-10-20T21:35:05.850Z,100.00
2022-10-20T21:38:09.661Z,100.00
2022-10-20T21:41:14.050Z,100.00
2022-10-20T21:44:16.677Z,100.00
2022-10-20T21:47:19.177Z,100.00
2022-10-20T21:50:21.685Z,100.00
2022-10-20T21:53:25.508Z,100.00
2022-10-20T21:56:28.689Z,100.00
2022-10-20T21:59:32.219Z,100.00
2022-10-20T22:02:34.683Z,100.00
2022-10-20T22:05:37.474Z,100.00
2022-10-20T22:08:43.191Z,100.00
2022-10-20T22:11:49.813Z,100.00
2022-10-20T22:14:52.320Z,100.00
2022-10-20T22:17:54.786Z,100.00
2022-10-20T22:20:57.459Z,100.00
2022-10-20T22:24:01.402Z,100.00
2022-10-20T22:27:15.361Z,100.00
2022-10-20T22:30:27.710Z,100.00
2022-10-20T22:33:30.205Z,100.00
2022-10-20T22:36:32.714Z,100.00
2022-10-20T22:39:36.546Z,100.00
2022-10-20T22:42:39.240Z,100.00
2022-10-20T22:45:41.922Z,100.00
2022-10-20T22:48:46.092Z,100.00
2022-10-20T22:51:48.675Z,100.00
2022-10-20T22:54:52.517Z,100.00
2022-10-20T22:57:55.034Z,100.00
2022-10-20T23:00:57.595Z,100.00
2022-10-20T23:04:00.140Z,100.00
2022-10-20T23:10:11.696Z,100.00
2022-10-20T23:13:14.186Z,100.00
2022-10-20T23:16:16.724Z,100.00
2022-10-20T23:19:19.479Z,100.00
2022-10-20T23:22:21.974Z,100.00
2022-10-20T23:25:25.813Z,100.00
2022-10-20T23:28:28.299Z,100.00
2022-10-20T23:31:30.782Z,100.00
2022-10-20T23:37:38.150Z,100.00
2022-10-20T23:40:42.220Z,100.00
2022-10-20T23:43:44.815Z,100.00
2022-10-20T23:46:47.359Z,100.00
2022-10-20T23:49:49.841Z,100.00
2022-10-20T23:52:52.780Z,100.00
2022-10-20T23:55:56.610Z,100.00
2022-10-20T23:58:59.106Z,100.00
